Scroll down
FLIGHT INFORMATION
Air New Zealand

ANZ7350

At Arrival Gate

KGYR
 KLAX
DATE: 2020-10-16
GATE:  -
GATE DEPARTURE: 21:06
TAKEOFF: 21:17
DATE: 2020-10-16
GATE: 76
LANDING: 22:15
GATE ARRIVAL: 22:27
FLIGHT DATA
Crew: 
Speed: 
748 kph
Altitude: 
24,008 ft
Stage Length: 
561.1 km
Block Time: 
1.3 hrs
Flight Time: 
1 hrs
Fuel Used: 
10,422 kg
Cleared Route: KGYR BLH WBERG YCDIL PDZ BASET KLAX
TRACK DATA
50,000 ft 1,000 kts
AIRCRAFT INFO AND CUMULATIVE STATS
Aircraft Type: 
B744
Registration: 
SELCAL: 
JQEM
MSN/LN: 
24855 / 815
Operator: 
Total Flights: 
2
Total Block Time: 
14.1 hrs
Total Flight Time: 
13.4 hrs
Total Fuel Used: 
145,859 kg
DATALINK LOG | Newest first | Current as of: 2022-11-30 09:34:12
LABEL SEQUENCE CONTENT Dn/Up
QD560422:27 50.5▼ Dn
QC404822:15▼ Dn
GA5922GATE 76▲ Up
GR5912KLAX 22:12 HI-VAL NO DIPL/VIP NO▼ Dn
5U2606KLAX 140112Z 27010KT 10SM SKC 27/14 A2995▲ Up
5S5105KLAX▼ Dn
QB415721:17▼ Dn
QA314721:06 73.5▼ Dn
A32339NO MATCHING FLIGHT DATA AVAILABLE FROM ANSP▲ Up
Q02240[LINK ACK]▲ Up
Q02239[LINK TEST]▼ Dn


AIRCRAFT HISTORY
FLIGHT DATE FLIGHT NO. ORIGIN DESTINATION CLEARED ROUTE BLOCK TIME FLIGHT TIME FUEL USED PILOT
2020-10-17ANZ19KLAX NZAA KLAX FICKY 30N23 28N25 18N35 15N38 10N42 06N45 BISOX PUMIS MEGOG ASORO OSUGA SAMAD TATAS AKLOM NZAA12.7 hrs12.5 hrs298,588 lbMike Dryden
2020-10-16ANZ7350KGYR KLAX KGYR BLH WBERG YCDIL PDZ BASET KLAX1.3 hrs1 hrs22,976 lbMike Dryden